sensor_id;sensor_type;location;lat;lon;timestamp;P1;durP1;ratioP1;P2;durP2;ratioP2
71806;SDS011;59655;42.590;23.364;2023-04-25T00:01:59;5.82;;;5.07;;
71806;SDS011;59655;42.590;23.364;2023-04-25T00:04:24;5.97;;;5.38;;
71806;SDS011;59655;42.590;23.364;2023-04-25T00:06:51;5.10;;;4.60;;
71806;SDS011;59655;42.590;23.364;2023-04-25T00:09:17;4.97;;;4.57;;
71806;SDS011;59655;42.590;23.364;2023-04-25T00:11:43;5.20;;;4.45;;
71806;SDS011;59655;42.590;23.364;2023-04-25T00:14:08;5.30;;;4.90;;
71806;SDS011;59655;42.590;23.364;2023-04-25T00:16:34;5.65;;;5.10;;
71806;SDS011;59655;42.590;23.364;2023-04-25T00:19:01;4.90;;;4.45;;
71806;SDS011;59655;42.590;23.364;2023-04-25T00:21:27;4.80;;;3.90;;
71806;SDS011;59655;42.590;23.364;2023-04-25T00:23:53;4.20;;;3.80;;
71806;SDS011;59655;42.590;23.364;2023-04-25T00:26:19;4.55;;;4.00;;
71806;SDS011;59655;42.590;23.364;2023-04-25T00:28:46;4.07;;;3.67;;
71806;SDS011;59655;42.590;23.364;2023-04-25T00:31:11;4.50;;;3.70;;
71806;SDS011;59655;42.590;23.364;2023-04-25T00:33:37;4.47;;;3.83;;
71806;SDS011;59655;42.590;23.364;2023-04-25T00:36:02;4.57;;;4.03;;
71806;SDS011;59655;42.590;23.364;2023-04-25T00:38:28;4.20;;;3.55;;
71806;SDS011;59655;42.590;23.364;2023-04-25T00:40:53;4.00;;;3.60;;
71806;SDS011;59655;42.590;23.364;2023-04-25T00:43:20;4.88;;;3.70;;
71806;SDS011;59655;42.590;23.364;2023-04-25T00:45:46;4.28;;;3.10;;
71806;SDS011;59655;42.590;23.364;2023-04-25T00:48:16;3.35;;;3.03;;
71806;SDS011;59655;42.590;23.364;2023-04-25T00:50:43;4.72;;;2.88;;
71806;SDS011;59655;42.590;23.364;2023-04-25T00:53:16;3.05;;;2.67;;
71806;SDS011;59655;42.590;23.364;2023-04-25T00:55:41;3.80;;;2.90;;
71806;SDS011;59655;42.590;23.364;2023-04-25T00:58:06;2.95;;;2.65;;
71806;SDS011;59655;42.590;23.364;2023-04-25T01:00:32;3.90;;;2.50;;
71806;SDS011;59655;42.590;23.364;2023-04-25T01:02:58;3.38;;;2.60;;
71806;SDS011;59655;42.590;23.364;2023-04-25T01:05:23;3.38;;;3.08;;
71806;SDS011;59655;42.590;23.364;2023-04-25T01:07:49;2.95;;;2.65;;
71806;SDS011;59655;42.590;23.364;2023-04-25T01:10:14;3.25;;;2.95;;
71806;SDS011;59655;42.590;23.364;2023-04-25T01:12:40;3.80;;;3.03;;
71806;SDS011;59655;42.590;23.364;2023-04-25T01:15:07;3.22;;;2.90;;
71806;SDS011;59655;42.590;23.364;2023-04-25T01:17:33;3.30;;;2.60;;
71806;SDS011;59655;42.590;23.364;2023-04-25T01:19:59;2.55;;;2.22;;
71806;SDS011;59655;42.590;23.364;2023-04-25T01:22:28;2.20;;;1.58;;
71806;SDS011;59655;42.590;23.364;2023-04-25T01:24:54;2.08;;;1.42;;
71806;SDS011;59655;42.590;23.364;2023-04-25T01:27:20;2.28;;;1.90;;
71806;SDS011;59655;42.590;23.364;2023-04-25T01:29:46;2.75;;;2.45;;
71806;SDS011;59655;42.590;23.364;2023-04-25T01:32:12;2.80;;;2.53;;
71806;SDS011;59655;42.590;23.364;2023-04-25T01:34:38;2.45;;;2.20;;
71806;SDS011;59655;42.590;23.364;2023-04-25T01:37:04;2.35;;;1.83;;
71806;SDS011;59655;42.590;23.364;2023-04-25T01:39:29;3.53;;;2.10;;
71806;SDS011;59655;42.590;23.364;2023-04-25T01:41:55;2.90;;;2.05;;
71806;SDS011;59655;42.590;23.364;2023-04-25T01:44:21;2.75;;;2.15;;
71806;SDS011;59655;42.590;23.364;2023-04-25T01:46:46;2.30;;;2.10;;
71806;SDS011;59655;42.590;23.364;2023-04-25T01:49:12;1.70;;;1.38;;
71806;SDS011;59655;42.590;23.364;2023-04-25T01:51:37;2.03;;;1.40;;
71806;SDS011;59655;42.590;23.364;2023-04-25T01:54:03;2.10;;;1.25;;
71806;SDS011;59655;42.590;23.364;2023-04-25T01:56:32;1.60;;;1.13;;
71806;SDS011;59655;42.590;23.364;2023-04-25T01:58:58;1.92;;;1.20;;
71806;SDS011;59655;42.590;23.364;2023-04-25T02:01:23;1.63;;;1.15;;
71806;SDS011;59655;42.590;23.364;2023-04-25T02:03:48;1.38;;;0.90;;
71806;SDS011;59655;42.590;23.364;2023-04-25T02:06:14;1.35;;;0.90;;
71806;SDS011;59655;42.590;23.364;2023-04-25T02:08:39;2.85;;;1.45;;
71806;SDS011;59655;42.590;23.364;2023-04-25T02:11:05;1.73;;;1.15;;
71806;SDS011;59655;42.590;23.364;2023-04-25T02:13:30;1.58;;;1.20;;
71806;SDS011;59655;42.590;23.364;2023-04-25T02:15:55;2.20;;;1.42;;
71806;SDS011;59655;42.590;23.364;2023-04-25T02:18:21;1.80;;;1.48;;
71806;SDS011;59655;42.590;23.364;2023-04-25T02:20:47;2.65;;;1.48;;
71806;SDS011;59655;42.590;23.364;2023-04-25T02:23:12;2.03;;;1.60;;
71806;SDS011;59655;42.590;23.364;2023-04-25T02:25:37;2.22;;;1.90;;
71806;SDS011;59655;42.590;23.364;2023-04-25T02:28:03;2.67;;;2.22;;
71806;SDS011;59655;42.590;23.364;2023-04-25T02:30:29;2.40;;;1.98;;
71806;SDS011;59655;42.590;23.364;2023-04-25T02:32:54;2.90;;;2.25;;
71806;SDS011;59655;42.590;23.364;2023-04-25T02:35:19;3.38;;;2.60;;
71806;SDS011;59655;42.590;23.364;2023-04-25T02:37:45;3.75;;;2.80;;
71806;SDS011;59655;42.590;23.364;2023-04-25T02:40:10;3.28;;;2.95;;
71806;SDS011;59655;42.590;23.364;2023-04-25T02:42:36;3.30;;;2.85;;
71806;SDS011;59655;42.590;23.364;2023-04-25T02:45:01;3.40;;;3.00;;
71806;SDS011;59655;42.590;23.364;2023-04-25T02:47:27;3.05;;;2.75;;
71806;SDS011;59655;42.590;23.364;2023-04-25T02:49:53;3.55;;;3.25;;
71806;SDS011;59655;42.590;23.364;2023-04-25T02:52:18;3.60;;;3.13;;
71806;SDS011;59655;42.590;23.364;2023-04-25T02:54:43;2.85;;;2.55;;
71806;SDS011;59655;42.590;23.364;2023-04-25T02:57:09;2.58;;;2.33;;
71806;SDS011;59655;42.590;23.364;2023-04-25T02:59:34;4.20;;;3.53;;
71806;SDS011;59655;42.590;23.364;2023-04-25T03:02:00;3.30;;;2.53;;
71806;SDS011;59655;42.590;23.364;2023-04-25T03:04:26;2.88;;;2.60;;
71806;SDS011;59655;42.590;23.364;2023-04-25T03:06:51;2.33;;;2.00;;
71806;SDS011;59655;42.590;23.364;2023-04-25T03:09:18;3.15;;;1.90;;
71806;SDS011;59655;42.590;23.364;2023-04-25T03:11:44;2.88;;;2.25;;
71806;SDS011;59655;42.590;23.364;2023-04-25T03:14:10;2.30;;;1.98;;
71806;SDS011;59655;42.590;23.364;2023-04-25T03:16:35;2.50;;;2.20;;
71806;SDS011;59655;42.590;23.364;2023-04-25T03:19:01;3.15;;;2.13;;
71806;SDS011;59655;42.590;23.364;2023-04-25T03:21:27;2.30;;;2.08;;
71806;SDS011;59655;42.590;23.364;2023-04-25T03:23:52;3.17;;;1.40;;
71806;SDS011;59655;42.590;23.364;2023-04-25T03:26:18;2.55;;;1.73;;
71806;SDS011;59655;42.590;23.364;2023-04-25T03:28:43;2.88;;;1.90;;
71806;SDS011;59655;42.590;23.364;2023-04-25T03:31:09;1.85;;;1.63;;
71806;SDS011;59655;42.590;23.364;2023-04-25T03:33:34;2.63;;;1.88;;
71806;SDS011;59655;42.590;23.364;2023-04-25T03:35:59;2.83;;;1.92;;
71806;SDS011;59655;42.590;23.364;2023-04-25T03:38:25;2.33;;;2.10;;
71806;SDS011;59655;42.590;23.364;2023-04-25T03:40:51;3.13;;;2.45;;
71806;SDS011;59655;42.590;23.364;2023-04-25T03:43:16;2.03;;;1.70;;
71806;SDS011;59655;42.590;23.364;2023-04-25T03:45:42;1.70;;;1.35;;
71806;SDS011;59655;42.590;23.364;2023-04-25T03:48:07;2.58;;;2.00;;
71806;SDS011;59655;42.590;23.364;2023-04-25T03:50:33;1.95;;;1.67;;
71806;SDS011;59655;42.590;23.364;2023-04-25T03:52:59;2.20;;;1.80;;
71806;SDS011;59655;42.590;23.364;2023-04-25T03:55:24;2.30;;;1.88;;
71806;SDS011;59655;42.590;23.364;2023-04-25T03:57:50;2.70;;;2.10;;
71806;SDS011;59655;42.590;23.364;2023-04-25T04:00:15;2.20;;;1.98;;
71806;SDS011;59655;42.590;23.364;2023-04-25T04:02:40;2.95;;;1.80;;
71806;SDS011;59655;42.590;23.364;2023-04-25T04:05:06;2.63;;;1.77;;
71806;SDS011;59655;42.590;23.364;2023-04-25T04:07:32;2.95;;;1.85;;
71806;SDS011;59655;42.590;23.364;2023-04-25T04:09:58;2.28;;;2.00;;
71806;SDS011;59655;42.590;23.364;2023-04-25T04:12:24;2.40;;;1.90;;
71806;SDS011;59655;42.590;23.364;2023-04-25T04:14:49;2.05;;;1.67;;
71806;SDS011;59655;42.590;23.364;2023-04-25T04:17:15;3.50;;;2.33;;
71806;SDS011;59655;42.590;23.364;2023-04-25T04:19:40;4.13;;;3.10;;
71806;SDS011;59655;42.590;23.364;2023-04-25T04:22:06;4.68;;;3.13;;
71806;SDS011;59655;42.590;23.364;2023-04-25T04:24:31;3.15;;;2.28;;
71806;SDS011;59655;42.590;23.364;2023-04-25T04:26:57;2.63;;;2.42;;
71806;SDS011;59655;42.590;23.364;2023-04-25T04:29:24;3.65;;;2.30;;
71806;SDS011;59655;42.590;23.364;2023-04-25T04:31:49;2.60;;;2.05;;
71806;SDS011;59655;42.590;23.364;2023-04-25T04:34:16;2.53;;;2.15;;
71806;SDS011;59655;42.590;23.364;2023-04-25T04:36:45;2.88;;;2.67;;
71806;SDS011;59655;42.590;23.364;2023-04-25T04:39:11;2.92;;;2.08;;
71806;SDS011;59655;42.590;23.364;2023-04-25T04:41:37;3.55;;;2.15;;
71806;SDS011;59655;42.590;23.364;2023-04-25T04:44:03;1.80;;;1.40;;
71806;SDS011;59655;42.590;23.364;2023-04-25T04:46:28;2.08;;;1.70;;
71806;SDS011;59655;42.590;23.364;2023-04-25T04:48:55;3.83;;;2.22;;
71806;SDS011;59655;42.590;23.364;2023-04-25T04:51:21;2.92;;;2.30;;
71806;SDS011;59655;42.590;23.364;2023-04-25T04:53:46;2.45;;;2.10;;
71806;SDS011;59655;42.590;23.364;2023-04-25T04:56:12;1.95;;;1.70;;
71806;SDS011;59655;42.590;23.364;2023-04-25T04:58:37;2.00;;;1.70;;
71806;SDS011;59655;42.590;23.364;2023-04-25T05:01:03;2.70;;;2.28;;
71806;SDS011;59655;42.590;23.364;2023-04-25T05:03:28;2.55;;;1.92;;
71806;SDS011;59655;42.590;23.364;2023-04-25T05:05:54;2.50;;;2.17;;
71806;SDS011;59655;42.590;23.364;2023-04-25T05:08:20;3.08;;;2.10;;
71806;SDS011;59655;42.590;23.364;2023-04-25T05:10:45;2.17;;;1.88;;
71806;SDS011;59655;42.590;23.364;2023-04-25T05:13:11;2.60;;;2.03;;
71806;SDS011;59655;42.590;23.364;2023-04-25T05:15:36;3.30;;;1.98;;
71806;SDS011;59655;42.590;23.364;2023-04-25T05:18:02;2.17;;;1.52;;
71806;SDS011;59655;42.590;23.364;2023-04-25T05:20:27;2.03;;;1.50;;
71806;SDS011;59655;42.590;23.364;2023-04-25T05:22:53;2.30;;;1.80;;
71806;SDS011;59655;42.590;23.364;2023-04-25T05:25:18;2.10;;;1.77;;
71806;SDS011;59655;42.590;23.364;2023-04-25T05:27:43;3.40;;;3.10;;
71806;SDS011;59655;42.590;23.364;2023-04-25T05:30:09;4.30;;;3.90;;
71806;SDS011;59655;42.590;23.364;2023-04-25T05:32:34;4.13;;;3.72;;
71806;SDS011;59655;42.590;23.364;2023-04-25T05:35:00;4.00;;;3.70;;
71806;SDS011;59655;42.590;23.364;2023-04-25T05:37:26;3.80;;;3.22;;
71806;SDS011;59655;42.590;23.364;2023-04-25T05:39:51;5.90;;;4.68;;
71806;SDS011;59655;42.590;23.364;2023-04-25T05:42:17;6.10;;;5.50;;
71806;SDS011;59655;42.590;23.364;2023-04-25T05:44:42;7.97;;;7.05;;
71806;SDS011;59655;42.590;23.364;2023-04-25T05:47:08;8.48;;;7.68;;
71806;SDS011;59655;42.590;23.364;2023-04-25T05:49:33;8.05;;;7.35;;
71806;SDS011;59655;42.590;23.364;2023-04-25T05:51:59;6.72;;;6.13;;
71806;SDS011;59655;42.590;23.364;2023-04-25T05:54:25;6.70;;;6.10;;
71806;SDS011;59655;42.590;23.364;2023-04-25T05:56:50;6.22;;;5.50;;
71806;SDS011;59655;42.590;23.364;2023-04-25T05:59:15;5.35;;;4.85;;
71806;SDS011;59655;42.590;23.364;2023-04-25T06:01:41;5.22;;;4.75;;
71806;SDS011;59655;42.590;23.364;2023-04-25T06:04:06;5.35;;;4.85;;
71806;SDS011;59655;42.590;23.364;2023-04-25T06:06:32;6.20;;;5.60;;
71806;SDS011;59655;42.590;23.364;2023-04-25T06:08:57;6.60;;;5.97;;
71806;SDS011;59655;42.590;23.364;2023-04-25T06:11:23;5.55;;;5.05;;
71806;SDS011;59655;42.590;23.364;2023-04-25T06:13:48;5.63;;;4.78;;
71806;SDS011;59655;42.590;23.364;2023-04-25T06:16:13;5.20;;;4.78;;
71806;SDS011;59655;42.590;23.364;2023-04-25T06:18:39;4.65;;;4.25;;
71806;SDS011;59655;42.590;23.364;2023-04-25T06:21:04;5.68;;;5.18;;
71806;SDS011;59655;42.590;23.364;2023-04-25T06:23:30;4.80;;;4.40;;
71806;SDS011;59655;42.590;23.364;2023-04-25T06:25:55;4.30;;;3.90;;
71806;SDS011;59655;42.590;23.364;2023-04-25T06:28:21;4.72;;;3.58;;
71806;SDS011;59655;42.590;23.364;2023-04-25T06:30:47;4.22;;;3.53;;
71806;SDS011;59655;42.590;23.364;2023-04-25T06:33:12;4.20;;;3.80;;
71806;SDS011;59655;42.590;23.364;2023-04-25T06:35:37;3.78;;;3.40;;
71806;SDS011;59655;42.590;23.364;2023-04-25T06:38:03;3.00;;;2.70;;
71806;SDS011;59655;42.590;23.364;2023-04-25T06:40:28;3.00;;;2.70;;
71806;SDS011;59655;42.590;23.364;2023-04-25T06:42:54;4.97;;;4.55;;
71806;SDS011;59655;42.590;23.364;2023-04-25T06:45:19;4.78;;;3.97;;
71806;SDS011;59655;42.590;23.364;2023-04-25T06:47:44;5.55;;;5.05;;
71806;SDS011;59655;42.590;23.364;2023-04-25T06:50:10;6.80;;;6.20;;
71806;SDS011;59655;42.590;23.364;2023-04-25T06:52:36;5.68;;;5.18;;
71806;SDS011;59655;42.590;23.364;2023-04-25T06:55:01;4.68;;;3.28;;
71806;SDS011;59655;42.590;23.364;2023-04-25T06:57:26;3.67;;;3.10;;
71806;SDS011;59655;42.590;23.364;2023-04-25T06:59:52;3.65;;;3.33;;
71806;SDS011;59655;42.590;23.364;2023-04-25T07:02:18;3.85;;;3.55;;
71806;SDS011;59655;42.590;23.364;2023-04-25T07:04:43;3.63;;;2.70;;
71806;SDS011;59655;42.590;23.364;2023-04-25T07:07:10;2.40;;;2.08;;
71806;SDS011;59655;42.590;23.364;2023-04-25T07:09:35;3.53;;;2.53;;
71806;SDS011;59655;42.590;23.364;2023-04-25T07:12:00;3.00;;;2.42;;
71806;SDS011;59655;42.590;23.364;2023-04-25T07:14:26;2.65;;;2.33;;
71806;SDS011;59655;42.590;23.364;2023-04-25T07:16:52;5.32;;;2.60;;
71806;SDS011;59655;42.590;23.364;2023-04-25T07:19:18;3.75;;;2.75;;
71806;SDS011;59655;42.590;23.364;2023-04-25T07:21:43;4.07;;;2.53;;
71806;SDS011;59655;42.590;23.364;2023-04-25T07:24:09;3.25;;;2.95;;
71806;SDS011;59655;42.590;23.364;2023-04-25T07:26:34;3.95;;;2.80;;
71806;SDS011;59655;42.590;23.364;2023-04-25T07:28:59;3.10;;;2.80;;
71806;SDS011;59655;42.590;23.364;2023-04-25T07:31:25;3.10;;;2.50;;
71806;SDS011;59655;42.590;23.364;2023-04-25T07:33:50;3.20;;;2.90;;
71806;SDS011;59655;42.590;23.364;2023-04-25T07:36:16;3.78;;;3.15;;
71806;SDS011;59655;42.590;23.364;2023-04-25T07:38:41;3.20;;;2.75;;
71806;SDS011;59655;42.590;23.364;2023-04-25T07:41:08;3.00;;;2.70;;
71806;SDS011;59655;42.590;23.364;2023-04-25T07:43:33;3.08;;;2.78;;
71806;SDS011;59655;42.590;23.364;2023-04-25T07:45:59;3.30;;;2.90;;
71806;SDS011;59655;42.590;23.364;2023-04-25T07:48:24;3.28;;;2.90;;
71806;SDS011;59655;42.590;23.364;2023-04-25T07:50:49;2.72;;;2.42;;
71806;SDS011;59655;42.590;23.364;2023-04-25T07:53:15;2.90;;;2.55;;
71806;SDS011;59655;42.590;23.364;2023-04-25T07:55:42;7.57;;;2.75;;
71806;SDS011;59655;42.590;23.364;2023-04-25T07:58:08;2.47;;;1.35;;
71806;SDS011;59655;42.590;23.364;2023-04-25T08:00:34;1.38;;;1.00;;
71806;SDS011;59655;42.590;23.364;2023-04-25T08:03:00;4.00;;;1.67;;
71806;SDS011;59655;42.590;23.364;2023-04-25T08:05:25;2.70;;;1.15;;
71806;SDS011;59655;42.590;23.364;2023-04-25T08:07:52;1.40;;;1.10;;
71806;SDS011;59655;42.590;23.364;2023-04-25T08:10:19;1.33;;;0.80;;
71806;SDS011;59655;42.590;23.364;2023-04-25T08:12:44;2.88;;;0.95;;
71806;SDS011;59655;42.590;23.364;2023-04-25T08:15:10;6.28;;;2.40;;
71806;SDS011;59655;42.590;23.364;2023-04-25T08:17:35;2.45;;;1.40;;
71806;SDS011;59655;42.590;23.364;2023-04-25T08:20:01;2.30;;;1.80;;
71806;SDS011;59655;42.590;23.364;2023-04-25T08:22:29;4.68;;;2.22;;
71806;SDS011;59655;42.590;23.364;2023-04-25T08:24:55;2.03;;;1.60;;
71806;SDS011;59655;42.590;23.364;2023-04-25T08:27:20;2.80;;;1.45;;
71806;SDS011;59655;42.590;23.364;2023-04-25T08:29:46;1.85;;;1.10;;
71806;SDS011;59655;42.590;23.364;2023-04-25T08:32:16;4.50;;;1.70;;
71806;SDS011;59655;42.590;23.364;2023-04-25T08:34:41;3.83;;;2.40;;
71806;SDS011;59655;42.590;23.364;2023-04-25T08:37:09;4.28;;;2.25;;
71806;SDS011;59655;42.590;23.364;2023-04-25T08:39:35;5.80;;;2.97;;
71806;SDS011;59655;42.590;23.364;2023-04-25T08:42:02;3.55;;;2.28;;
71806;SDS011;59655;42.590;23.364;2023-04-25T08:44:33;3.95;;;1.35;;
71806;SDS011;59655;42.590;23.364;2023-04-25T08:47:00;1.20;;;0.82;;
71806;SDS011;59655;42.590;23.364;2023-04-25T08:49:28;0.90;;;0.80;;
71806;SDS011;59655;42.590;23.364;2023-04-25T08:51:54;1.10;;;0.90;;
71806;SDS011;59655;42.590;23.364;2023-04-25T08:54:25;0.77;;;0.60;;
71806;SDS011;59655;42.590;23.364;2023-04-25T08:59:19;0.82;;;0.50;;
71806;SDS011;59655;42.590;23.364;2023-04-25T09:01:46;1.17;;;0.70;;
71806;SDS011;59655;42.590;23.364;2023-04-25T09:04:12;2.00;;;0.98;;
71806;SDS011;59655;42.590;23.364;2023-04-25T09:06:37;1.50;;;0.77;;
71806;SDS011;59655;42.590;23.364;2023-04-25T09:09:04;6.15;;;1.10;;
71806;SDS011;59655;42.590;23.364;2023-04-25T09:11:31;1.85;;;0.80;;
71806;SDS011;59655;42.590;23.364;2023-04-25T09:14:10;3.35;;;1.13;;
71806;SDS011;59655;42.590;23.364;2023-04-25T09:21:55;4.22;;;1.20;;
71806;SDS011;59655;42.590;23.364;2023-04-25T09:26:59;2.75;;;1.60;;
71806;SDS011;59655;42.590;23.364;2023-04-25T09:29:30;3.03;;;1.77;;
71806;SDS011;59655;42.590;23.364;2023-04-25T09:34:47;3.25;;;1.90;;
71806;SDS011;59655;42.590;23.364;2023-04-25T09:37:24;2.75;;;1.90;;
71806;SDS011;59655;42.590;23.364;2023-04-25T09:39:53;3.85;;;1.85;;
71806;SDS011;59655;42.590;23.364;2023-04-25T09:42:23;3.90;;;2.08;;
71806;SDS011;59655;42.590;23.364;2023-04-25T09:44:51;3.20;;;2.10;;
71806;SDS011;59655;42.590;23.364;2023-04-25T09:47:20;3.17;;;2.20;;
71806;SDS011;59655;42.590;23.364;2023-04-25T09:52:17;2.72;;;2.20;;
71806;SDS011;59655;42.590;23.364;2023-04-25T09:54:44;2.72;;;2.17;;
71806;SDS011;59655;42.590;23.364;2023-04-25T09:57:22;2.78;;;1.80;;
71806;SDS011;59655;42.590;23.364;2023-04-25T09:59:49;2.63;;;1.70;;
71806;SDS011;59655;42.590;23.364;2023-04-25T10:02:17;1.50;;;0.90;;
71806;SDS011;59655;42.590;23.364;2023-04-25T10:04:47;1.65;;;0.63;;
71806;SDS011;59655;42.590;23.364;2023-04-25T10:07:13;3.22;;;0.80;;
71806;SDS011;59655;42.590;23.364;2023-04-25T10:09:40;1.40;;;1.00;;
71806;SDS011;59655;42.590;23.364;2023-04-25T10:12:06;3.55;;;1.23;;
71806;SDS011;59655;42.590;23.364;2023-04-25T10:14:33;1.98;;;1.30;;
71806;SDS011;59655;42.590;23.364;2023-04-25T10:16:59;1.80;;;1.20;;
71806;SDS011;59655;42.590;23.364;2023-04-25T10:19:25;2.85;;;0.85;;
71806;SDS011;59655;42.590;23.364;2023-04-25T10:21:54;1.60;;;0.63;;
71806;SDS011;59655;42.590;23.364;2023-04-25T10:24:36;1.02;;;0.60;;
71806;SDS011;59655;42.590;23.364;2023-04-25T10:27:04;0.75;;;0.50;;
71806;SDS011;59655;42.590;23.364;2023-04-25T10:29:30;1.35;;;0.45;;
71806;SDS011;59655;42.590;23.364;2023-04-25T10:31:55;1.13;;;0.50;;
71806;SDS011;59655;42.590;23.364;2023-04-25T10:34:37;1.95;;;0.60;;
71806;SDS011;59655;42.590;23.364;2023-04-25T10:37:04;1.38;;;0.55;;
71806;SDS011;59655;42.590;23.364;2023-04-25T10:39:30;0.60;;;0.45;;
71806;SDS011;59655;42.590;23.364;2023-04-25T10:41:57;0.60;;;0.40;;
71806;SDS011;59655;42.590;23.364;2023-04-25T10:44:30;0.82;;;0.47;;
71806;SDS011;59655;42.590;23.364;2023-04-25T10:46:57;0.93;;;0.40;;
71806;SDS011;59655;42.590;23.364;2023-04-25T10:52:12;0.30;;;0.30;;
71806;SDS011;59655;42.590;23.364;2023-04-25T10:54:55;0.70;;;0.50;;
71806;SDS011;59655;42.590;23.364;2023-04-25T11:00:00;0.73;;;0.45;;
71806;SDS011;59655;42.590;23.364;2023-04-25T11:02:37;1.27;;;0.77;;
71806;SDS011;59655;42.590;23.364;2023-04-25T11:05:05;1.52;;;0.80;;
71806;SDS011;59655;42.590;23.364;2023-04-25T11:10:03;0.80;;;0.60;;
71806;SDS011;59655;42.590;23.364;2023-04-25T11:12:30;2.20;;;0.90;;
71806;SDS011;59655;42.590;23.364;2023-04-25T11:15:03;2.72;;;0.50;;
71806;SDS011;59655;42.590;23.364;2023-04-25T11:17:29;0.63;;;0.32;;
71806;SDS011;59655;42.590;23.364;2023-04-25T11:19:55;0.52;;;0.40;;
71806;SDS011;59655;42.590;23.364;2023-04-25T11:22:21;2.03;;;0.70;;
71806;SDS011;59655;42.590;23.364;2023-04-25T11:24:47;1.10;;;0.70;;
71806;SDS011;59655;42.590;23.364;2023-04-25T11:27:13;1.45;;;0.63;;
71806;SDS011;59655;42.590;23.364;2023-04-25T11:29:38;2.10;;;1.00;;
71806;SDS011;59655;42.590;23.364;2023-04-25T11:32:04;1.30;;;0.82;;
71806;SDS011;59655;42.590;23.364;2023-04-25T11:34:30;1.60;;;1.10;;
71806;SDS011;59655;42.590;23.364;2023-04-25T11:36:57;1.35;;;0.70;;
71806;SDS011;59655;42.590;23.364;2023-04-25T11:39:24;1.25;;;0.68;;
71806;SDS011;59655;42.590;23.364;2023-04-25T11:41:50;0.98;;;0.57;;
71806;SDS011;59655;42.590;23.364;2023-04-25T11:44:16;1.45;;;0.70;;
71806;SDS011;59655;42.590;23.364;2023-04-25T11:46:42;1.00;;;0.60;;
71806;SDS011;59655;42.590;23.364;2023-04-25T11:49:08;1.38;;;0.70;;
71806;SDS011;59655;42.590;23.364;2023-04-25T11:51:43;0.85;;;0.70;;
71806;SDS011;59655;42.590;23.364;2023-04-25T11:54:11;2.17;;;0.80;;
71806;SDS011;59655;42.590;23.364;2023-04-25T11:56:37;0.90;;;0.57;;
71806;SDS011;59655;42.590;23.364;2023-04-25T11:59:03;1.67;;;1.25;;
71806;SDS011;59655;42.590;23.364;2023-04-25T12:01:37;1.67;;;0.90;;
71806;SDS011;59655;42.590;23.364;2023-04-25T12:04:13;2.30;;;1.40;;
71806;SDS011;59655;42.590;23.364;2023-04-25T12:06:41;1.10;;;0.50;;
71806;SDS011;59655;42.590;23.364;2023-04-25T12:09:07;1.02;;;0.60;;
71806;SDS011;59655;42.590;23.364;2023-04-25T12:11:45;1.02;;;0.50;;
71806;SDS011;59655;42.590;23.364;2023-04-25T12:14:12;1.38;;;0.65;;
71806;SDS011;59655;42.590;23.364;2023-04-25T12:16:46;1.52;;;0.80;;
71806;SDS011;59655;42.590;23.364;2023-04-25T12:19:18;1.13;;;0.75;;
71806;SDS011;59655;42.590;23.364;2023-04-25T12:21:45;2.58;;;1.60;;
71806;SDS011;59655;42.590;23.364;2023-04-25T12:24:28;1.58;;;1.10;;
71806;SDS011;59655;42.590;23.364;2023-04-25T12:27:04;2.10;;;1.30;;
71806;SDS011;59655;42.590;23.364;2023-04-25T12:29:31;2.42;;;1.20;;
71806;SDS011;59655;42.590;23.364;2023-04-25T12:31:58;2.40;;;1.30;;
71806;SDS011;59655;42.590;23.364;2023-04-25T12:34:24;2.55;;;1.50;;
71806;SDS011;59655;42.590;23.364;2023-04-25T12:36:51;2.20;;;1.50;;
71806;SDS011;59655;42.590;23.364;2023-04-25T12:39:18;2.92;;;1.85;;
71806;SDS011;59655;42.590;23.364;2023-04-25T12:41:50;2.60;;;1.50;;
71806;SDS011;59655;42.590;23.364;2023-04-25T12:44:19;1.05;;;0.82;;
71806;SDS011;59655;42.590;23.364;2023-04-25T12:46:46;2.67;;;1.50;;
71806;SDS011;59655;42.590;23.364;2023-04-25T12:49:12;2.10;;;1.20;;
71806;SDS011;59655;42.590;23.364;2023-04-25T12:51:37;1.08;;;0.70;;
71806;SDS011;59655;42.590;23.364;2023-04-25T12:54:04;1.38;;;0.68;;
71806;SDS011;59655;42.590;23.364;2023-04-25T12:56:30;0.95;;;0.40;;
71806;SDS011;59655;42.590;23.364;2023-04-25T12:58:56;2.00;;;0.50;;
71806;SDS011;59655;42.590;23.364;2023-04-25T13:01:22;2.95;;;0.52;;
71806;SDS011;59655;42.590;23.364;2023-04-25T13:03:48;0.70;;;0.30;;
71806;SDS011;59655;42.590;23.364;2023-04-25T13:06:14;0.60;;;0.32;;
71806;SDS011;59655;42.590;23.364;2023-04-25T13:08:40;0.40;;;0.30;;
71806;SDS011;59655;42.590;23.364;2023-04-25T13:11:06;0.80;;;0.50;;
71806;SDS011;59655;42.590;23.364;2023-04-25T13:13:31;0.80;;;0.50;;
71806;SDS011;59655;42.590;23.364;2023-04-25T13:15:59;1.23;;;0.40;;
71806;SDS011;59655;42.590;23.364;2023-04-25T13:18:31;0.60;;;0.57;;
71806;SDS011;59655;42.590;23.364;2023-04-25T13:20:57;1.15;;;0.60;;
71806;SDS011;59655;42.590;23.364;2023-04-25T13:23:24;0.85;;;0.60;;
71806;SDS011;59655;42.590;23.364;2023-04-25T13:25:51;1.05;;;0.50;;
71806;SDS011;59655;42.590;23.364;2023-04-25T13:28:17;1.00;;;0.40;;
71806;SDS011;59655;42.590;23.364;2023-04-25T13:30:43;1.45;;;0.50;;
71806;SDS011;59655;42.590;23.364;2023-04-25T13:33:09;0.90;;;0.40;;
71806;SDS011;59655;42.590;23.364;2023-04-25T13:35:35;0.80;;;0.68;;
71806;SDS011;59655;42.590;23.364;2023-04-25T13:38:02;0.90;;;0.50;;
71806;SDS011;59655;42.590;23.364;2023-04-25T13:40:28;1.05;;;0.47;;
71806;SDS011;59655;42.590;23.364;2023-04-25T13:42:54;1.05;;;0.40;;
71806;SDS011;59655;42.590;23.364;2023-04-25T13:45:20;0.88;;;0.45;;
71806;SDS011;59655;42.590;23.364;2023-04-25T13:47:46;0.52;;;0.43;;
71806;SDS011;59655;42.590;23.364;2023-04-25T13:50:12;1.02;;;0.47;;
71806;SDS011;59655;42.590;23.364;2023-04-25T13:52:38;0.50;;;0.30;;
71806;SDS011;59655;42.590;23.364;2023-04-25T13:55:04;0.63;;;0.40;;
71806;SDS011;59655;42.590;23.364;2023-04-25T13:57:32;0.45;;;0.30;;
71806;SDS011;59655;42.590;23.364;2023-04-25T13:59:58;1.63;;;1.00;;
71806;SDS011;59655;42.590;23.364;2023-04-25T14:02:24;7.05;;;3.80;;
71806;SDS011;59655;42.590;23.364;2023-04-25T14:04:50;2.88;;;1.70;;
71806;SDS011;59655;42.590;23.364;2023-04-25T14:07:15;2.10;;;1.40;;
71806;SDS011;59655;42.590;23.364;2023-04-25T14:09:45;0.85;;;0.60;;
71806;SDS011;59655;42.590;23.364;2023-04-25T14:12:11;1.50;;;0.80;;
71806;SDS011;59655;42.590;23.364;2023-04-25T14:14:36;2.33;;;1.20;;
71806;SDS011;59655;42.590;23.364;2023-04-25T14:17:02;2.70;;;1.63;;
71806;SDS011;59655;42.590;23.364;2023-04-25T14:19:28;2.63;;;1.45;;
71806;SDS011;59655;42.590;23.364;2023-04-25T14:21:54;1.80;;;1.30;;
71806;SDS011;59655;42.590;23.364;2023-04-25T14:24:20;4.97;;;2.00;;
71806;SDS011;59655;42.590;23.364;2023-04-25T14:26:45;3.58;;;2.20;;
71806;SDS011;59655;42.590;23.364;2023-04-25T14:29:11;3.08;;;1.83;;
71806;SDS011;59655;42.590;23.364;2023-04-25T14:31:37;7.45;;;4.53;;
71806;SDS011;59655;42.590;23.364;2023-04-25T14:34:04;7.50;;;4.60;;
71806;SDS011;59655;42.590;23.364;2023-04-25T14:36:30;3.40;;;2.10;;
71806;SDS011;59655;42.590;23.364;2023-04-25T14:38:56;1.55;;;0.90;;
71806;SDS011;59655;42.590;23.364;2023-04-25T14:41:22;1.10;;;0.80;;
71806;SDS011;59655;42.590;23.364;2023-04-25T14:43:48;1.98;;;1.30;;
71806;SDS011;59655;42.590;23.364;2023-04-25T14:46:13;2.10;;;1.20;;
71806;SDS011;59655;42.590;23.364;2023-04-25T14:48:39;3.35;;;2.15;;
71806;SDS011;59655;42.590;23.364;2023-04-25T14:51:05;3.30;;;2.60;;
71806;SDS011;59655;42.590;23.364;2023-04-25T14:53:31;4.40;;;1.55;;